sensor_id;sensor_type;location;lat;lon;timestamp;P1;durP1;ratioP1;P2;durP2;ratioP2
75608;SDS011;64194;51.044;13.780;2022-10-16T00:00:55;20.50;;;12.10;;
75608;SDS011;64194;51.044;13.780;2022-10-16T00:04:57;18.92;;;10.93;;
75608;SDS011;64194;51.044;13.780;2022-10-16T00:08:58;19.80;;;11.35;;
75608;SDS011;64194;51.044;13.780;2022-10-16T00:13:00;23.85;;;12.50;;
75608;SDS011;64194;51.044;13.780;2022-10-16T00:17:02;20.17;;;11.70;;
75608;SDS011;64194;51.044;13.780;2022-10-16T00:21:04;19.20;;;11.25;;
75608;SDS011;64194;51.044;13.780;2022-10-16T00:25:08;19.10;;;10.45;;
75608;SDS011;64194;51.044;13.780;2022-10-16T00:29:10;19.27;;;10.32;;
75608;SDS011;64194;51.044;13.780;2022-10-16T00:33:12;21.15;;;11.23;;
75608;SDS011;64194;51.044;13.780;2022-10-16T00:37:13;19.08;;;9.63;;
75608;SDS011;64194;51.044;13.780;2022-10-16T00:41:16;17.60;;;11.43;;
75608;SDS011;64194;51.044;13.780;2022-10-16T00:45:18;19.25;;;10.90;;
75608;SDS011;64194;51.044;13.780;2022-10-16T00:49:20;16.75;;;9.80;;
75608;SDS011;64194;51.044;13.780;2022-10-16T00:53:21;16.25;;;9.85;;
75608;SDS011;64194;51.044;13.780;2022-10-16T00:57:26;18.45;;;10.63;;
75608;SDS011;64194;51.044;13.780;2022-10-16T01:01:28;18.02;;;10.77;;
75608;SDS011;64194;51.044;13.780;2022-10-16T01:05:39;17.77;;;10.93;;
75608;SDS011;64194;51.044;13.780;2022-10-16T01:14:27;21.40;;;12.02;;
75608;SDS011;64194;51.044;13.780;2022-10-16T01:28:09;18.63;;;10.65;;
75608;SDS011;64194;51.044;13.780;2022-10-16T01:32:19;18.83;;;11.75;;
75608;SDS011;64194;51.044;13.780;2022-10-16T01:36:39;15.88;;;9.98;;
75608;SDS011;64194;51.044;13.780;2022-10-16T01:40:44;17.88;;;10.77;;
75608;SDS011;64194;51.044;13.780;2022-10-16T01:44:51;17.50;;;10.80;;
75608;SDS011;64194;51.044;13.780;2022-10-16T01:48:54;16.98;;;10.05;;
75608;SDS011;64194;51.044;13.780;2022-10-16T01:52:56;16.38;;;9.82;;
75608;SDS011;64194;51.044;13.780;2022-10-16T01:56:59;16.85;;;10.60;;
75608;SDS011;64194;51.044;13.780;2022-10-16T02:01:03;17.77;;;11.07;;
75608;SDS011;64194;51.044;13.780;2022-10-16T02:05:18;19.65;;;11.18;;
75608;SDS011;64194;51.044;13.780;2022-10-16T02:09:25;18.45;;;11.10;;
75608;SDS011;64194;51.044;13.780;2022-10-16T02:13:42;20.80;;;11.02;;
75608;SDS011;64194;51.044;13.780;2022-10-16T02:17:47;19.55;;;11.77;;
75608;SDS011;64194;51.044;13.780;2022-10-16T02:21:50;20.70;;;12.48;;
75608;SDS011;64194;51.044;13.780;2022-10-16T02:25:55;18.90;;;11.07;;
75608;SDS011;64194;51.044;13.780;2022-10-16T02:34:14;18.17;;;11.32;;
75608;SDS011;64194;51.044;13.780;2022-10-16T02:38:20;17.83;;;10.93;;
75608;SDS011;64194;51.044;13.780;2022-10-16T02:42:27;19.92;;;11.90;;
75608;SDS011;64194;51.044;13.780;2022-10-16T02:46:31;18.85;;;11.45;;
75608;SDS011;64194;51.044;13.780;2022-10-16T02:50:32;16.30;;;10.57;;
75608;SDS011;64194;51.044;13.780;2022-10-16T02:54:34;19.75;;;12.55;;
75608;SDS011;64194;51.044;13.780;2022-10-16T02:58:35;17.27;;;12.23;;
75608;SDS011;64194;51.044;13.780;2022-10-16T03:02:37;20.20;;;11.32;;
75608;SDS011;64194;51.044;13.780;2022-10-16T03:06:38;19.27;;;11.15;;
75608;SDS011;64194;51.044;13.780;2022-10-16T03:10:40;17.73;;;10.68;;
75608;SDS011;64194;51.044;13.780;2022-10-16T03:14:42;20.63;;;10.65;;
75608;SDS011;64194;51.044;13.780;2022-10-16T03:18:47;17.13;;;10.38;;
75608;SDS011;64194;51.044;13.780;2022-10-16T03:22:49;17.85;;;10.00;;
75608;SDS011;64194;51.044;13.780;2022-10-16T03:26:51;16.55;;;10.95;;
75608;SDS011;64194;51.044;13.780;2022-10-16T03:30:52;17.45;;;10.48;;
75608;SDS011;64194;51.044;13.780;2022-10-16T03:34:54;17.40;;;10.98;;
75608;SDS011;64194;51.044;13.780;2022-10-16T03:38:57;18.55;;;11.13;;
75608;SDS011;64194;51.044;13.780;2022-10-16T03:42:59;19.35;;;11.20;;
75608;SDS011;64194;51.044;13.780;2022-10-16T03:47:00;18.52;;;11.82;;
75608;SDS011;64194;51.044;13.780;2022-10-16T03:51:02;18.50;;;11.82;;
75608;SDS011;64194;51.044;13.780;2022-10-16T03:55:04;16.75;;;10.68;;
75608;SDS011;64194;51.044;13.780;2022-10-16T03:59:06;18.60;;;11.15;;
75608;SDS011;64194;51.044;13.780;2022-10-16T04:03:07;17.08;;;11.27;;
75608;SDS011;64194;51.044;13.780;2022-10-16T04:07:09;17.15;;;10.70;;
75608;SDS011;64194;51.044;13.780;2022-10-16T04:11:11;15.95;;;10.52;;
75608;SDS011;64194;51.044;13.780;2022-10-16T04:15:13;18.30;;;11.50;;
75608;SDS011;64194;51.044;13.780;2022-10-16T04:19:14;19.77;;;11.23;;
75608;SDS011;64194;51.044;13.780;2022-10-16T04:23:16;18.13;;;11.38;;
75608;SDS011;64194;51.044;13.780;2022-10-16T04:27:17;19.20;;;11.25;;
75608;SDS011;64194;51.044;13.780;2022-10-16T04:31:19;17.55;;;11.10;;
75608;SDS011;64194;51.044;13.780;2022-10-16T04:35:21;17.40;;;11.38;;
75608;SDS011;64194;51.044;13.780;2022-10-16T04:39:23;19.65;;;11.45;;
75608;SDS011;64194;51.044;13.780;2022-10-16T04:43:25;18.58;;;12.13;;
75608;SDS011;64194;51.044;13.780;2022-10-16T04:47:27;18.95;;;12.25;;
75608;SDS011;64194;51.044;13.780;2022-10-16T04:51:29;19.80;;;11.90;;
75608;SDS011;64194;51.044;13.780;2022-10-16T04:55:31;18.27;;;11.70;;
75608;SDS011;64194;51.044;13.780;2022-10-16T04:59:32;19.23;;;12.27;;
75608;SDS011;64194;51.044;13.780;2022-10-16T05:03:34;18.08;;;11.30;;
75608;SDS011;64194;51.044;13.780;2022-10-16T05:07:36;18.67;;;10.98;;
75608;SDS011;64194;51.044;13.780;2022-10-16T05:11:37;17.88;;;11.10;;
75608;SDS011;64194;51.044;13.780;2022-10-16T05:15:39;19.17;;;11.70;;
75608;SDS011;64194;51.044;13.780;2022-10-16T05:19:41;16.13;;;10.68;;
75608;SDS011;64194;51.044;13.780;2022-10-16T05:23:43;16.77;;;11.02;;
75608;SDS011;64194;51.044;13.780;2022-10-16T05:27:48;17.33;;;10.82;;
75608;SDS011;64194;51.044;13.780;2022-10-16T05:31:50;19.88;;;11.50;;
75608;SDS011;64194;51.044;13.780;2022-10-16T05:35:53;19.42;;;11.27;;
75608;SDS011;64194;51.044;13.780;2022-10-16T05:39:55;16.55;;;10.63;;
75608;SDS011;64194;51.044;13.780;2022-10-16T05:43:56;14.15;;;9.35;;
75608;SDS011;64194;51.044;13.780;2022-10-16T05:47:58;17.65;;;10.77;;
75608;SDS011;64194;51.044;13.780;2022-10-16T05:52:01;15.60;;;9.95;;
75608;SDS011;64194;51.044;13.780;2022-10-16T05:56:03;18.83;;;11.38;;
75608;SDS011;64194;51.044;13.780;2022-10-16T06:00:06;17.83;;;10.82;;
75608;SDS011;64194;51.044;13.780;2022-10-16T06:04:12;16.88;;;11.10;;
75608;SDS011;64194;51.044;13.780;2022-10-16T06:08:14;16.55;;;11.02;;
75608;SDS011;64194;51.044;13.780;2022-10-16T06:12:16;16.95;;;9.88;;
75608;SDS011;64194;51.044;13.780;2022-10-16T06:16:18;16.48;;;10.80;;
75608;SDS011;64194;51.044;13.780;2022-10-16T06:20:19;19.75;;;10.60;;
75608;SDS011;64194;51.044;13.780;2022-10-16T06:24:21;17.98;;;11.05;;
75608;SDS011;64194;51.044;13.780;2022-10-16T06:28:25;15.02;;;9.90;;
75608;SDS011;64194;51.044;13.780;2022-10-16T06:32:27;15.40;;;9.98;;
75608;SDS011;64194;51.044;13.780;2022-10-16T06:36:28;17.20;;;10.38;;
75608;SDS011;64194;51.044;13.780;2022-10-16T06:40:30;15.65;;;10.60;;
75608;SDS011;64194;51.044;13.780;2022-10-16T06:44:32;16.90;;;11.20;;
75608;SDS011;64194;51.044;13.780;2022-10-16T06:48:33;19.25;;;12.20;;
75608;SDS011;64194;51.044;13.780;2022-10-16T06:52:35;21.08;;;12.45;;
75608;SDS011;64194;51.044;13.780;2022-10-16T06:56:37;15.82;;;10.77;;
75608;SDS011;64194;51.044;13.780;2022-10-16T07:00:39;17.98;;;11.55;;
75608;SDS011;64194;51.044;13.780;2022-10-16T07:04:41;18.23;;;12.57;;
75608;SDS011;64194;51.044;13.780;2022-10-16T07:08:43;16.33;;;11.18;;
75608;SDS011;64194;51.044;13.780;2022-10-16T07:12:46;17.92;;;11.63;;
75608;SDS011;64194;51.044;13.780;2022-10-16T07:16:48;22.17;;;13.05;;
75608;SDS011;64194;51.044;13.780;2022-10-16T07:20:49;16.58;;;11.30;;
75608;SDS011;64194;51.044;13.780;2022-10-16T07:24:51;15.98;;;11.18;;
75608;SDS011;64194;51.044;13.780;2022-10-16T07:28:53;15.75;;;10.65;;
75608;SDS011;64194;51.044;13.780;2022-10-16T07:32:56;16.58;;;11.70;;
75608;SDS011;64194;51.044;13.780;2022-10-16T07:36:57;26.83;;;11.52;;
75608;SDS011;64194;51.044;13.780;2022-10-16T07:41:00;15.77;;;11.07;;
75608;SDS011;64194;51.044;13.780;2022-10-16T07:45:04;14.73;;;10.15;;
75608;SDS011;64194;51.044;13.780;2022-10-16T07:49:06;13.63;;;9.90;;
75608;SDS011;64194;51.044;13.780;2022-10-16T07:53:07;15.90;;;11.07;;
75608;SDS011;64194;51.044;13.780;2022-10-16T07:57:09;13.52;;;9.75;;
75608;SDS011;64194;51.044;13.780;2022-10-16T08:01:12;14.48;;;10.80;;
75608;SDS011;64194;51.044;13.780;2022-10-16T08:05:16;15.80;;;10.57;;
75608;SDS011;64194;51.044;13.780;2022-10-16T08:09:18;16.65;;;11.15;;
75608;SDS011;64194;51.044;13.780;2022-10-16T08:13:19;12.18;;;9.45;;
75608;SDS011;64194;51.044;13.780;2022-10-16T08:17:22;13.43;;;10.02;;
75608;SDS011;64194;51.044;13.780;2022-10-16T08:21:24;13.30;;;9.68;;
75608;SDS011;64194;51.044;13.780;2022-10-16T08:25:26;13.05;;;9.60;;
75608;SDS011;64194;51.044;13.780;2022-10-16T08:29:28;12.10;;;8.68;;
75608;SDS011;64194;51.044;13.780;2022-10-16T08:33:30;13.77;;;8.63;;
75608;SDS011;64194;51.044;13.780;2022-10-16T08:37:32;10.15;;;7.57;;
75608;SDS011;64194;51.044;13.780;2022-10-16T08:50:27;9.27;;;7.25;;
75608;SDS011;64194;51.044;13.780;2022-10-16T08:54:50;8.98;;;6.53;;
75608;SDS011;64194;51.044;13.780;2022-10-16T08:58:57;9.43;;;6.70;;
75608;SDS011;64194;51.044;13.780;2022-10-16T09:03:05;8.13;;;6.28;;
75608;SDS011;64194;51.044;13.780;2022-10-16T09:15:29;7.72;;;6.03;;
75608;SDS011;64194;51.044;13.780;2022-10-16T09:19:37;7.57;;;6.30;;
75608;SDS011;64194;51.044;13.780;2022-10-16T09:23:45;6.72;;;5.68;;
75608;SDS011;64194;51.044;13.780;2022-10-16T09:27:47;7.32;;;5.43;;
75608;SDS011;64194;51.044;13.780;2022-10-16T09:31:50;6.70;;;6.00;;
75608;SDS011;64194;51.044;13.780;2022-10-16T09:35:53;8.07;;;6.13;;
75608;SDS011;64194;51.044;13.780;2022-10-16T09:39:57;8.02;;;6.28;;
75608;SDS011;64194;51.044;13.780;2022-10-16T09:44:02;7.22;;;6.00;;
75608;SDS011;64194;51.044;13.780;2022-10-16T09:48:12;7.85;;;6.20;;
75608;SDS011;64194;51.044;13.780;2022-10-16T09:52:14;6.50;;;5.50;;
75608;SDS011;64194;51.044;13.780;2022-10-16T09:56:21;7.53;;;6.30;;
75608;SDS011;64194;51.044;13.780;2022-10-16T10:00:25;8.05;;;6.13;;
75608;SDS011;64194;51.044;13.780;2022-10-16T10:04:37;6.18;;;4.85;;
75608;SDS011;64194;51.044;13.780;2022-10-16T10:08:59;7.95;;;4.35;;
75608;SDS011;64194;51.044;13.780;2022-10-16T10:13:19;6.45;;;3.75;;
75608;SDS011;64194;51.044;13.780;2022-10-16T10:17:23;5.03;;;3.17;;
75608;SDS011;64194;51.044;13.780;2022-10-16T10:21:27;5.78;;;3.60;;
75608;SDS011;64194;51.044;13.780;2022-10-16T10:29:46;4.78;;;3.22;;
75608;SDS011;64194;51.044;13.780;2022-10-16T10:43:03;5.45;;;2.20;;
75608;SDS011;64194;51.044;13.780;2022-10-16T10:51:50;3.45;;;1.63;;
75608;SDS011;64194;51.044;13.780;2022-10-16T11:00:26;3.10;;;1.10;;
75608;SDS011;64194;51.044;13.780;2022-10-16T11:09:02;1.77;;;0.70;;
75608;SDS011;64194;51.044;13.780;2022-10-16T11:21:39;3.20;;;0.75;;
75608;SDS011;64194;51.044;13.780;2022-10-16T11:25:51;1.98;;;0.60;;
75608;SDS011;64194;51.044;13.780;2022-10-16T11:29:58;1.17;;;0.50;;
75608;SDS011;64194;51.044;13.780;2022-10-16T11:42:37;1.08;;;0.50;;
75608;SDS011;64194;51.044;13.780;2022-10-16T11:46:45;2.30;;;0.47;;
75608;SDS011;64194;51.044;13.780;2022-10-16T11:55:34;1.23;;;0.60;;
75608;SDS011;64194;51.044;13.780;2022-10-16T11:59:46;1.38;;;0.65;;
75608;SDS011;64194;51.044;13.780;2022-10-16T12:08:09;1.70;;;0.55;;
75608;SDS011;64194;51.044;13.780;2022-10-16T12:12:26;2.30;;;0.55;;
75608;SDS011;64194;51.044;13.780;2022-10-16T12:16:52;2.15;;;0.57;;
75608;SDS011;64194;51.044;13.780;2022-10-16T12:29:33;1.77;;;0.60;;
75608;SDS011;64194;51.044;13.780;2022-10-16T12:34:00;1.98;;;0.80;;
75608;SDS011;64194;51.044;13.780;2022-10-16T12:38:15;1.58;;;0.60;;
75608;SDS011;64194;51.044;13.780;2022-10-16T12:42:30;1.23;;;0.50;;
75608;SDS011;64194;51.044;13.780;2022-10-16T12:46:35;1.65;;;0.50;;
75608;SDS011;64194;51.044;13.780;2022-10-16T12:54:42;1.63;;;0.70;;
75608;SDS011;64194;51.044;13.780;2022-10-16T12:58:48;1.10;;;0.63;;
75608;SDS011;64194;51.044;13.780;2022-10-16T13:03:04;1.77;;;0.70;;
75608;SDS011;64194;51.044;13.780;2022-10-16T13:11:29;2.75;;;0.70;;
75608;SDS011;64194;51.044;13.780;2022-10-16T13:28:52;3.10;;;0.90;;
75608;SDS011;64194;51.044;13.780;2022-10-16T13:32:56;1.95;;;0.77;;
75608;SDS011;64194;51.044;13.780;2022-10-16T13:37:02;2.90;;;1.17;;
75608;SDS011;64194;51.044;13.780;2022-10-16T13:41:05;1.23;;;0.60;;
75608;SDS011;64194;51.044;13.780;2022-10-16T13:45:21;1.75;;;0.70;;
75608;SDS011;64194;51.044;13.780;2022-10-16T13:49:26;1.98;;;0.57;;
75608;SDS011;64194;51.044;13.780;2022-10-16T13:53:29;5.38;;;1.30;;
75608;SDS011;64194;51.044;13.780;2022-10-16T13:57:35;5.00;;;1.05;;
75608;SDS011;64194;51.044;13.780;2022-10-16T14:01:40;3.25;;;0.90;;
75608;SDS011;64194;51.044;13.780;2022-10-16T14:05:54;2.35;;;1.02;;
75608;SDS011;64194;51.044;13.780;2022-10-16T14:10:00;2.20;;;0.95;;
75608;SDS011;64194;51.044;13.780;2022-10-16T14:14:05;3.38;;;1.23;;
75608;SDS011;64194;51.044;13.780;2022-10-16T14:18:15;3.42;;;1.45;;
75608;SDS011;64194;51.044;13.780;2022-10-16T14:22:35;3.92;;;1.60;;
75608;SDS011;64194;51.044;13.780;2022-10-16T14:26:44;3.05;;;1.20;;
75608;SDS011;64194;51.044;13.780;2022-10-16T14:30:52;4.05;;;1.60;;
75608;SDS011;64194;51.044;13.780;2022-10-16T14:34:56;5.05;;;1.65;;
75608;SDS011;64194;51.044;13.780;2022-10-16T14:38:59;4.80;;;1.80;;
75608;SDS011;64194;51.044;13.780;2022-10-16T14:43:04;5.68;;;2.38;;
75608;SDS011;64194;51.044;13.780;2022-10-16T14:47:07;5.03;;;1.90;;
75608;SDS011;64194;51.044;13.780;2022-10-16T14:51:14;5.93;;;2.63;;
75608;SDS011;64194;51.044;13.780;2022-10-16T14:55:17;3.90;;;1.60;;
75608;SDS011;64194;51.044;13.780;2022-10-16T15:03:22;3.20;;;1.48;;
75608;SDS011;64194;51.044;13.780;2022-10-16T15:07:24;4.43;;;1.50;;
75608;SDS011;64194;51.044;13.780;2022-10-16T15:11:27;3.95;;;1.40;;
75608;SDS011;64194;51.044;13.780;2022-10-16T15:15:33;4.13;;;1.73;;
75608;SDS011;64194;51.044;13.780;2022-10-16T15:19:35;4.20;;;1.23;;
75608;SDS011;64194;51.044;13.780;2022-10-16T15:23:37;3.70;;;1.80;;
75608;SDS011;64194;51.044;13.780;2022-10-16T15:27:40;3.70;;;1.60;;
75608;SDS011;64194;51.044;13.780;2022-10-16T15:31:41;4.60;;;2.17;;
75608;SDS011;64194;51.044;13.780;2022-10-16T15:35:49;4.05;;;1.65;;
75608;SDS011;64194;51.044;13.780;2022-10-16T15:39:52;3.90;;;1.60;;
75608;SDS011;64194;51.044;13.780;2022-10-16T15:43:54;4.05;;;1.70;;
75608;SDS011;64194;51.044;13.780;2022-10-16T15:47:56;4.80;;;2.13;;
75608;SDS011;64194;51.044;13.780;2022-10-16T15:51:58;4.68;;;2.30;;
75608;SDS011;64194;51.044;13.780;2022-10-16T15:56:06;6.35;;;2.10;;
75608;SDS011;64194;51.044;13.780;2022-10-16T16:00:09;5.82;;;1.67;;
75608;SDS011;64194;51.044;13.780;2022-10-16T16:04:20;4.53;;;1.98;;
75608;SDS011;64194;51.044;13.780;2022-10-16T16:08:41;4.28;;;2.20;;
75608;SDS011;64194;51.044;13.780;2022-10-16T16:12:45;4.82;;;2.63;;
75608;SDS011;64194;51.044;13.780;2022-10-16T16:16:51;4.65;;;2.60;;
75608;SDS011;64194;51.044;13.780;2022-10-16T16:20:52;4.75;;;2.30;;
75608;SDS011;64194;51.044;13.780;2022-10-16T16:24:56;5.20;;;2.25;;
75608;SDS011;64194;51.044;13.780;2022-10-16T16:28:58;6.35;;;2.30;;
75608;SDS011;64194;51.044;13.780;2022-10-16T16:33:00;5.70;;;2.78;;
75608;SDS011;64194;51.044;13.780;2022-10-16T16:37:01;5.18;;;2.25;;
75608;SDS011;64194;51.044;13.780;2022-10-16T16:41:18;5.65;;;2.63;;
75608;SDS011;64194;51.044;13.780;2022-10-16T16:49:23;5.40;;;2.85;;
75608;SDS011;64194;51.044;13.780;2022-10-16T16:53:25;6.57;;;2.80;;
75608;SDS011;64194;51.044;13.780;2022-10-16T16:57:26;7.45;;;3.92;;
75608;SDS011;64194;51.044;13.780;2022-10-16T17:01:28;8.45;;;3.95;;
75608;SDS011;64194;51.044;13.780;2022-10-16T17:05:30;6.63;;;3.75;;
75608;SDS011;64194;51.044;13.780;2022-10-16T17:09:32;5.65;;;3.53;;
75608;SDS011;64194;51.044;13.780;2022-10-16T17:13:34;8.73;;;3.80;;
75608;SDS011;64194;51.044;13.780;2022-10-16T17:17:38;6.07;;;3.65;;
75608;SDS011;64194;51.044;13.780;2022-10-16T17:21:41;6.78;;;3.78;;
75608;SDS011;64194;51.044;13.780;2022-10-16T17:25:44;7.60;;;3.83;;
75608;SDS011;64194;51.044;13.780;2022-10-16T17:29:49;6.22;;;3.53;;
75608;SDS011;64194;51.044;13.780;2022-10-16T17:33:51;7.85;;;3.75;;
75608;SDS011;64194;51.044;13.780;2022-10-16T17:37:53;7.90;;;4.13;;
75608;SDS011;64194;51.044;13.780;2022-10-16T17:41:55;10.93;;;5.88;;
75608;SDS011;64194;51.044;13.780;2022-10-16T17:45:56;12.02;;;7.43;;
75608;SDS011;64194;51.044;13.780;2022-10-16T17:50:03;8.60;;;6.43;;
75608;SDS011;64194;51.044;13.780;2022-10-16T17:54:05;10.45;;;6.38;;
75608;SDS011;64194;51.044;13.780;2022-10-16T17:58:07;10.10;;;6.38;;
75608;SDS011;64194;51.044;13.780;2022-10-16T18:02:09;8.68;;;5.65;;
75608;SDS011;64194;51.044;13.780;2022-10-16T18:06:12;10.02;;;6.10;;
75608;SDS011;64194;51.044;13.780;2022-10-16T18:10:13;9.15;;;5.78;;
75608;SDS011;64194;51.044;13.780;2022-10-16T18:14:21;9.38;;;5.60;;
75608;SDS011;64194;51.044;13.780;2022-10-16T18:18:22;13.90;;;8.40;;
75608;SDS011;64194;51.044;13.780;2022-10-16T18:22:31;11.10;;;7.45;;
75608;SDS011;64194;51.044;13.780;2022-10-16T18:26:33;10.93;;;7.28;;
75608;SDS011;64194;51.044;13.780;2022-10-16T18:30:35;9.80;;;7.30;;
75608;SDS011;64194;51.044;13.780;2022-10-16T18:34:37;10.73;;;7.82;;
75608;SDS011;64194;51.044;13.780;2022-10-16T18:38:38;11.68;;;7.20;;
75608;SDS011;64194;51.044;13.780;2022-10-16T18:42:41;11.80;;;7.60;;
75608;SDS011;64194;51.044;13.780;2022-10-16T18:46:44;10.27;;;6.57;;
75608;SDS011;64194;51.044;13.780;2022-10-16T18:50:45;11.55;;;7.70;;
75608;SDS011;64194;51.044;13.780;2022-10-16T18:54:47;12.95;;;8.23;;
75608;SDS011;64194;51.044;13.780;2022-10-16T18:58:49;12.02;;;8.02;;
75608;SDS011;64194;51.044;13.780;2022-10-16T19:02:53;15.77;;;8.93;;
75608;SDS011;64194;51.044;13.780;2022-10-16T19:06:55;13.20;;;8.88;;
75608;SDS011;64194;51.044;13.780;2022-10-16T19:11:30;14.52;;;8.45;;
75608;SDS011;64194;51.044;13.780;2022-10-16T19:15:25;13.02;;;9.45;;
75608;SDS011;64194;51.044;13.780;2022-10-16T19:19:27;11.52;;;8.43;;
75608;SDS011;64194;51.044;13.780;2022-10-16T19:23:28;12.55;;;9.15;;
75608;SDS011;64194;51.044;13.780;2022-10-16T19:27:30;13.85;;;9.48;;
75608;SDS011;64194;51.044;13.780;2022-10-16T19:31:32;14.60;;;9.32;;
75608;SDS011;64194;51.044;13.780;2022-10-16T19:35:34;13.40;;;9.18;;
75608;SDS011;64194;51.044;13.780;2022-10-16T19:39:36;13.07;;;8.75;;
75608;SDS011;64194;51.044;13.780;2022-10-16T19:43:38;13.13;;;8.60;;
75608;SDS011;64194;51.044;13.780;2022-10-16T19:47:40;11.43;;;8.05;;
75608;SDS011;64194;51.044;13.780;2022-10-16T19:51:41;13.75;;;9.13;;
75608;SDS011;64194;51.044;13.780;2022-10-16T19:55:43;10.68;;;7.65;;
75608;SDS011;64194;51.044;13.780;2022-10-16T19:59:46;12.95;;;8.70;;
75608;SDS011;64194;51.044;13.780;2022-10-16T20:03:47;11.88;;;7.13;;
75608;SDS011;64194;51.044;13.780;2022-10-16T20:07:50;10.63;;;7.07;;
75608;SDS011;64194;51.044;13.780;2022-10-16T20:11:52;10.40;;;7.38;;
75608;SDS011;64194;51.044;13.780;2022-10-16T20:15:53;8.75;;;6.53;;
75608;SDS011;64194;51.044;13.780;2022-10-16T20:19:56;10.20;;;6.15;;
75608;SDS011;64194;51.044;13.780;2022-10-16T20:23:59;10.32;;;5.70;;
75608;SDS011;64194;51.044;13.780;2022-10-16T20:28:03;9.00;;;5.88;;
75608;SDS011;64194;51.044;13.780;2022-10-16T20:32:05;9.07;;;5.20;;
75608;SDS011;64194;51.044;13.780;2022-10-16T20:36:14;8.52;;;5.30;;
75608;SDS011;64194;51.044;13.780;2022-10-16T20:40:16;8.82;;;4.85;;
75608;SDS011;64194;51.044;13.780;2022-10-16T20:44:18;6.82;;;4.65;;
75608;SDS011;64194;51.044;13.780;2022-10-16T20:48:19;9.65;;;4.82;;
75608;SDS011;64194;51.044;13.780;2022-10-16T20:52:21;9.43;;;5.78;;
75608;SDS011;64194;51.044;13.780;2022-10-16T20:56:23;9.48;;;5.25;;
75608;SDS011;64194;51.044;13.780;2022-10-16T21:01:09;7.63;;;4.72;;
75608;SDS011;64194;51.044;13.780;2022-10-16T21:05:12;9.13;;;5.25;;
75608;SDS011;64194;51.044;13.780;2022-10-16T21:09:14;12.93;;;7.75;;
75608;SDS011;64194;51.044;13.780;2022-10-16T21:13:16;12.23;;;7.03;;
75608;SDS011;64194;51.044;13.780;2022-10-16T21:17:17;10.05;;;5.90;;
75608;SDS011;64194;51.044;13.780;2022-10-16T21:21:24;9.73;;;5.32;;
75608;SDS011;64194;51.044;13.780;2022-10-16T21:25:31;9.80;;;5.55;;
75608;SDS011;64194;51.044;13.780;2022-10-16T21:29:33;7.78;;;4.55;;
75608;SDS011;64194;51.044;13.780;2022-10-16T21:33:35;9.90;;;4.90;;
75608;SDS011;64194;51.044;13.780;2022-10-16T21:37:36;8.55;;;4.70;;
75608;SDS011;64194;51.044;13.780;2022-10-16T21:41:39;10.95;;;6.15;;
75608;SDS011;64194;51.044;13.780;2022-10-16T21:45:41;8.77;;;4.78;;
75608;SDS011;64194;51.044;13.780;2022-10-16T21:49:43;8.32;;;5.13;;
75608;SDS011;64194;51.044;13.780;2022-10-16T21:53:44;7.97;;;5.10;;
75608;SDS011;64194;51.044;13.780;2022-10-16T21:57:46;7.75;;;5.40;;
75608;SDS011;64194;51.044;13.780;2022-10-16T22:01:48;8.50;;;5.32;;
75608;SDS011;64194;51.044;13.780;2022-10-16T22:05:53;9.00;;;5.38;;
75608;SDS011;64194;51.044;13.780;2022-10-16T22:09:54;8.98;;;5.47;;
75608;SDS011;64194;51.044;13.780;2022-10-16T22:13:56;8.68;;;5.40;;
75608;SDS011;64194;51.044;13.780;2022-10-16T22:17:58;9.32;;;5.07;;
75608;SDS011;64194;51.044;13.780;2022-10-16T22:21:59;7.30;;;4.97;;
75608;SDS011;64194;51.044;13.780;2022-10-16T22:26:05;7.70;;;5.22;;
75608;SDS011;64194;51.044;13.780;2022-10-16T22:30:08;8.60;;;4.95;;
75608;SDS011;64194;51.044;13.780;2022-10-16T22:34:11;8.20;;;5.05;;
75608;SDS011;64194;51.044;13.780;2022-10-16T22:38:14;8.40;;;4.93;;
75608;SDS011;64194;51.044;13.780;2022-10-16T22:42:16;8.43;;;4.75;;
75608;SDS011;64194;51.044;13.780;2022-10-16T22:46:25;9.60;;;4.75;;
75608;SDS011;64194;51.044;13.780;2022-10-16T22:50:29;8.52;;;4.57;;
75608;SDS011;64194;51.044;13.780;2022-10-16T22:54:31;9.88;;;5.25;;
75608;SDS011;64194;51.044;13.780;2022-10-16T22:58:33;7.78;;;4.72;;
75608;SDS011;64194;51.044;13.780;2022-10-16T23:02:35;8.55;;;5.18;;
75608;SDS011;64194;51.044;13.780;2022-10-16T23:06:36;8.77;;;4.53;;
75608;SDS011;64194;51.044;13.780;2022-10-16T23:10:38;7.68;;;5.03;;
75608;SDS011;64194;51.044;13.780;2022-10-16T23:14:42;9.73;;;5.50;;
75608;SDS011;64194;51.044;13.780;2022-10-16T23:18:44;7.45;;;5.05;;
75608;SDS011;64194;51.044;13.780;2022-10-16T23:22:46;8.02;;;5.00;;
75608;SDS011;64194;51.044;13.780;2022-10-16T23:26:48;7.95;;;4.70;;
75608;SDS011;64194;51.044;13.780;2022-10-16T23:30:49;8.68;;;4.68;;
75608;SDS011;64194;51.044;13.780;2022-10-16T23:34:51;7.68;;;4.50;;
75608;SDS011;64194;51.044;13.780;2022-10-16T23:38:53;8.30;;;4.88;;
75608;SDS011;64194;51.044;13.780;2022-10-16T23:42:54;8.85;;;4.57;;
75608;SDS011;64194;51.044;13.780;2022-10-16T23:46:56;8.60;;;4.88;;
75608;SDS011;64194;51.044;13.780;2022-10-16T23:50:58;8.95;;;5.13;;
75608;SDS011;64194;51.044;13.780;2022-10-16T23:55:00;8.23;;;4.65;;
75608;SDS011;64194;51.044;13.780;2022-10-16T23:59:01;9.80;;;5.47;;
